Time;durP1;ratioP1;P1;durP2;ratioP2;P2;SDS_P1;SDS_P2;PMS_P1;PMS_P2;Temp;Humidity;BMP_temperature;BMP_pressure;BME280_temperature;BME280_humidity;BME280_pressure;Samples;Min_cycle;Max_cycle;Signal;HPM_P1;HPM_P2
2023/10/01 00:00:38;;;;;;;13.50;8.90;;;;;;;6.73;100.00;98779.15;109717;1273;22200;-76
2023/10/01 00:03:26;;;;;;;13.40;8.70;;;;;;;6.73;100.00;98774.59;109758;1287;22234;-75
2023/10/01 00:05:54;;;;;;;15.00;7.80;;;;;;;6.79;100.00;98783.52;109686;1287;22352;-76
2023/10/01 00:08:22;;;;;;;12.00;8.60;;;;;;;6.79;100.00;98778.73;109749;1279;22220;-76
2023/10/01 00:10:51;;;;;;;11.80;7.80;;;;;;;6.74;100.00;98773.36;109738;1279;23052;-80
2023/10/01 00:13:20;;;;;;;13.20;8.80;;;;;;;6.72;100.00;98772.77;109741;1276;22121;-81
2023/10/01 00:15:49;;;;;;;15.60;9.00;;;;;;;6.69;100.00;98768.55;109762;1287;22403;-81
2023/10/01 00:18:18;;;;;;;17.70;8.80;;;;;;;6.66;100.00;98768.98;109774;1286;22245;-79
2023/10/01 00:20:46;;;;;;;12.40;8.70;;;;;;;6.61;100.00;98768.59;109821;1280;22238;-80
2023/10/01 00:23:14;;;;;;;10.10;8.20;;;;;;;6.61;100.00;98768.27;109918;1286;22803;-80
2023/10/01 00:25:43;;;;;;;17.60;8.70;;;;;;;6.61;100.00;98765.54;109910;1280;22202;-81
2023/10/01 00:28:11;;;;;;;14.60;8.80;;;;;;;6.60;100.00;98768.30;109971;1286;22164;-81
2023/10/01 00:30:39;;;;;;;13.30;8.60;;;;;;;6.59;100.00;98767.32;109619;1273;246280;-81
2023/10/01 00:33:13;;;;;;;15.20;9.00;;;;;;;6.58;100.00;98760.23;109709;1280;22186;-79
2023/10/01 00:35:42;;;;;;;11.60;9.00;;;;;;;6.59;100.00;98756.67;109756;1280;22242;-80
2023/10/01 00:38:10;;;;;;;11.60;8.50;;;;;;;6.58;100.00;98757.68;109776;1269;22413;-80
2023/10/01 00:40:42;;;;;;;14.60;9.30;;;;;;;6.52;100.00;98757.39;109772;1280;22880;-80
2023/10/01 00:43:11;;;;;;;13.80;9.50;;;;;;;6.50;100.00;98756.95;109757;1276;22181;-80
2023/10/01 00:45:39;;;;;;;13.70;9.70;;;;;;;6.49;100.00;98748.48;109762;1280;22196;-80
2023/10/01 00:48:14;;;;;;;14.50;8.70;;;;;;;6.54;100.00;98743.86;109710;1286;22209;-79
2023/10/01 00:50:43;;;;;;;13.20;9.20;;;;;;;6.56;100.00;98747.20;109779;1286;22830;-81
2023/10/01 00:53:11;;;;;;;13.00;8.70;;;;;;;6.51;100.00;98740.45;109763;1276;23127;-81
2023/10/01 00:55:39;;;;;;;14.30;8.90;;;;;;;6.47;100.00;98742.88;109712;1273;22243;-81
2023/10/01 00:58:10;;;;;;;14.80;9.20;;;;;;;6.41;100.00;98742.17;109783;1267;22234;-81
2023/10/01 01:00:38;;;;;;;13.60;9.20;;;;;;;6.36;100.00;98746.17;109808;1273;22202;-80
2023/10/01 01:03:08;;;;;;;14.40;8.30;;;;;;;6.31;100.00;98744.04;109790;1286;22888;-80
2023/10/01 01:05:40;;;;;;;13.40;8.90;;;;;;;6.29;100.00;98743.20;109710;1276;23563;-80
2023/10/01 01:08:22;;;;;;;17.50;9.70;;;;;;;6.25;100.00;98738.50;109781;1283;22199;-80
2023/10/01 01:10:51;;;;;;;15.60;9.20;;;;;;;6.24;100.00;98736.89;109735;1280;22182;-80
2023/10/01 01:13:23;;;;;;;17.00;10.40;;;;;;;6.19;100.00;98735.54;109772;1273;22336;-80
2023/10/01 01:15:52;;;;;;;16.70;11.70;;;;;;;6.13;100.00;98734.55;109788;1276;22307;-80
2023/10/01 01:18:21;;;;;;;12.80;10.80;;;;;;;6.10;100.00;98732.70;109735;1280;23100;-80
2023/10/01 01:20:57;;;;;;;17.50;10.70;;;;;;;6.12;100.00;98735.83;109792;1286;22910;-81
2023/10/01 01:23:30;;;;;;;15.80;10.20;;;;;;;6.14;100.00;98730.66;109790;1275;22284;-81
2023/10/01 01:26:00;;;;;;;18.30;10.90;;;;;;;6.15;100.00;98728.13;109626;1280;22221;-80
2023/10/01 01:28:35;;;;;;;15.30;10.90;;;;;;;6.19;100.00;98722.58;109605;1286;22907;-80
2023/10/01 01:31:04;;;;;;;16.20;11.40;;;;;;;6.23;100.00;98722.25;109740;1286;22011;-78
2023/10/01 01:33:40;;;;;;;15.40;11.80;;;;;;;6.23;100.00;98724.25;109754;1280;22376;-80
2023/10/01 01:36:17;;;;;;;15.80;11.90;;;;;;;6.22;100.00;98724.92;109775;1286;22217;-77
2023/10/01 01:39:09;;;;;;;16.90;11.20;;;;;;;6.17;100.00;98728.52;109784;1280;22957;-77
2023/10/01 01:41:47;;;;;;;17.80;11.90;;;;;;;6.12;100.00;98731.77;109708;1272;22234;-80
2023/10/01 01:44:16;;;;;;;16.30;12.00;;;;;;;6.16;100.00;98728.61;109725;1286;22977;-79
2023/10/01 01:46:59;;;;;;;20.30;13.70;;;;;;;6.21;100.00;98733.85;109765;1286;23036;-79
2023/10/01 01:49:28;;;;;;;20.10;12.90;;;;;;;6.31;100.00;98734.35;109734;1286;22271;-79
2023/10/01 01:52:03;;;;;;;17.80;14.00;;;;;;;6.36;100.00;98733.50;109718;1286;22203;-80
2023/10/01 01:54:34;;;;;;;16.40;13.60;;;;;;;6.42;100.00;98731.53;109761;1280;22348;-80
2023/10/01 01:57:03;;;;;;;19.50;14.10;;;;;;;6.43;100.00;98735.44;109720;1286;22881;-80
2023/10/01 01:59:31;;;;;;;18.10;14.30;;;;;;;6.36;100.00;98731.25;109747;1286;22205;-80
2023/10/01 02:02:00;;;;;;;18.80;14.90;;;;;;;6.34;100.00;98733.90;109783;1286;22329;-80
2023/10/01 02:04:28;;;;;;;20.10;13.80;;;;;;;6.40;100.00;98732.75;109755;1279;22402;-79
2023/10/01 02:06:56;;;;;;;15.20;12.70;;;;;;;6.48;100.00;98739.67;109777;1286;22196;-80
2023/10/01 02:09:24;;;;;;;17.30;14.40;;;;;;;6.50;100.00;98740.70;109740;1280;22812;-80
2023/10/01 02:11:53;;;;;;;19.80;15.30;;;;;;;6.46;100.00;98735.27;109770;1286;22249;-79
2023/10/01 02:14:30;;;;;;;17.80;14.90;;;;;;;6.40;100.00;98734.83;109782;1286;22249;-79
2023/10/01 02:17:15;;;;;;;17.60;11.40;;;;;;;6.40;100.00;98732.41;109756;1283;22225;-79
2023/10/01 02:19:47;;;;;;;18.40;11.80;;;;;;;6.43;100.00;98736.36;109814;1286;22251;-79
2023/10/01 02:22:16;;;;;;;19.10;14.90;;;;;;;6.41;100.00;98735.05;109966;1280;22350;-80
2023/10/01 02:24:45;;;;;;;20.80;16.00;;;;;;;6.40;100.00;98730.49;109808;1286;22220;-79
2023/10/01 02:27:24;;;;;;;19.80;16.10;;;;;;;6.43;100.00;98726.29;109788;1284;23061;-79
2023/10/01 02:35:34;;;;;;;31.80;21.00;;;;;;;6.38;100.00;98715.80;109775;1279;22984;-79
2023/10/01 02:38:07;;;;;;;21.00;16.10;;;;;;;6.36;100.00;98720.98;109781;1283;22246;-79
2023/10/01 02:40:39;;;;;;;24.90;18.50;;;;;;;6.32;100.00;98724.13;109738;1282;22224;-79
2023/10/01 02:43:08;;;;;;;20.20;16.50;;;;;;;6.28;100.00;98724.24;109746;1286;22216;-79
2023/10/01 02:45:41;;;;;;;18.90;15.50;;;;;;;6.25;100.00;98727.59;109730;1286;22206;-81
2023/10/01 02:48:18;;;;;;;15.30;13.70;;;;;;;6.18;100.00;98729.22;109786;1280;22382;-78
2023/10/01 02:50:54;;;;;;;16.60;13.80;;;;;;;6.17;100.00;98729.67;109725;1280;22230;-78
2023/10/01 02:53:23;;;;;;;17.40;14.50;;;;;;;6.20;100.00;98732.02;109755;1280;22993;-78
2023/10/01 02:55:52;;;;;;;16.00;12.60;;;;;;;6.27;100.00;98733.87;109691;1284;22229;-79
2023/10/01 02:58:27;;;;;;;17.70;14.90;;;;;;;6.32;100.00;98737.89;109723;1279;22203;-79
2023/10/01 03:00:56;;;;;;;14.30;12.60;;;;;;;6.38;100.00;98734.91;109755;1272;22278;-79
2023/10/01 03:03:38;;;;;;;19.40;16.60;;;;;;;6.40;100.00;98733.80;109738;1273;22137;-79
2023/10/01 03:06:09;;;;;;;26.50;16.40;;;;;;;6.47;100.00;98729.34;109756;1279;22354;-79
2023/10/01 03:08:41;;;;;;;19.20;16.70;;;;;;;6.53;100.00;98726.89;109757;1279;22597;-79
2023/10/01 03:11:11;;;;;;;19.30;15.80;;;;;;;6.70;100.00;98724.11;109763;1280;22251;-79
2023/10/01 03:13:40;;;;;;;25.00;20.00;;;;;;;6.79;100.00;98720.02;109722;1286;22209;-79
2023/10/01 03:19:17;;;;;;;20.40;15.60;;;;;;;7.01;100.00;98732.64;109556;1279;22373;-79
2023/10/01 03:24:33;;;;;;;63.60;21.30;;;;;;;7.12;100.00;98733.60;109753;1286;22752;-79
2023/10/01 03:27:20;;;;;;;70.80;19.70;;;;;;;7.23;100.00;98735.67;109759;1283;22982;-79
2023/10/01 03:30:00;;;;;;;35.50;18.60;;;;;;;7.40;100.00;98728.34;109739;1276;22204;-79
2023/10/01 03:32:29;;;;;;;29.90;17.50;;;;;;;7.58;100.00;98728.98;109771;1271;22213;-79
2023/10/01 03:35:06;;;;;;;37.80;17.30;;;;;;;7.70;100.00;98726.89;109763;1276;22195;-79
2023/10/01 03:37:40;;;;;;;51.70;17.30;;;;;;;7.82;100.00;98726.84;109753;1276;22136;-79
2023/10/01 03:40:21;;;;;;;34.50;16.50;;;;;;;7.92;100.00;98726.14;109768;1281;23240;-79
2023/10/01 03:42:51;;;;;;;24.70;16.60;;;;;;;8.02;100.00;98729.56;109740;1279;22240;-80
2023/10/01 03:45:37;;;;;;;24.30;16.60;;;;;;;8.09;100.00;98719.94;109721;1273;22125;-79
2023/10/01 03:48:19;;;;;;;29.70;15.40;;;;;;;8.20;100.00;98723.84;109764;1284;22355;-79
2023/10/01 03:50:47;;;;;;;30.60;15.90;;;;;;;8.28;100.00;98729.23;109773;1279;22969;-79
2023/10/01 03:53:18;;;;;;;23.90;16.20;;;;;;;8.35;100.00;98725.93;109787;1286;22619;-80
2023/10/01 03:55:46;;;;;;;22.60;16.50;;;;;;;8.43;100.00;98728.95;109751;1286;22281;-79
2023/10/01 03:58:26;;;;;;;34.70;15.80;;;;;;;8.52;100.00;98733.91;109775;1286;22194;-79
2023/10/01 04:00:54;;;;;;;24.30;17.60;;;;;;;8.56;100.00;98729.36;109778;1286;22984;-79
2023/10/01 04:03:22;;;;;;;21.70;16.40;;;;;;;8.59;100.00;98725.71;109742;1286;22929;-80
2023/10/01 04:05:56;;;;;;;21.50;15.70;;;;;;;8.59;100.00;98726.69;109766;1280;22238;-80
2023/10/01 04:08:25;;;;;;;;;;;;;;;8.61;100.00;98730.70;109777;1283;22359;-80
2023/10/01 04:10:58;;;;;;;33.30;16.90;;;;;;;8.60;100.00;98736.51;109820;1286;22146;-79
2023/10/01 04:13:27;;;;;;;21.50;15.40;;;;;;;8.62;100.00;98719.23;109873;1286;22480;-80
2023/10/01 04:15:56;;;;;;;45.40;15.00;;;;;;;8.64;100.00;98722.08;109852;1279;22214;-79
2023/10/01 04:18:28;;;;;;;29.40;16.50;;;;;;;8.64;100.00;98723.47;109863;1280;22212;-80
2023/10/01 04:23:47;;;;;;;28.40;14.40;;;;;;;8.72;100.00;98718.91;109788;1271;22281;-80
2023/10/01 04:26:17;;;;;;;18.90;14.10;;;;;;;8.78;100.00;98717.35;109688;1287;22180;-80
2023/10/01 04:28:54;;;;;;;19.90;13.50;;;;;;;8.81;100.00;98723.45;109751;1280;22208;-80
2023/10/01 04:34:11;;;;;;;33.50;12.70;;;;;;;8.75;100.00;98725.10;109761;1283;22311;-80
2023/10/01 04:36:42;;;;;;;34.90;13.30;;;;;;;8.72;100.00;98720.16;109765;1286;22204;-80
2023/10/01 04:39:11;;;;;;;35.60;13.50;;;;;;;8.74;100.00;98723.11;109747;1286;22902;-80
2023/10/01 04:41:39;;;;;;;21.20;14.40;;;;;;;8.76;100.00;98718.16;109767;1286;23180;-80
2023/10/01 04:44:07;;;;;;;38.70;15.10;;;;;;;8.79;100.00;98721.98;109805;1286;22334;-80
2023/10/01 04:46:37;;;;;;;47.80;14.20;;;;;;;8.82;100.00;98724.09;109769;1286;22936;-79
2023/10/01 04:49:08;;;;;;;20.50;14.10;;;;;;;8.86;100.00;98728.45;109734;1286;22817;-79
2023/10/01 04:51:58;;;;;;;24.80;15.90;;;;;;;8.88;100.00;98728.89;109720;1286;22246;-79
2023/10/01 04:54:28;;;;;;;42.70;15.40;;;;;;;8.91;100.00;98731.46;109761;1271;22979;-79
2023/10/01 04:56:57;;;;;;;25.30;16.30;;;;;;;8.93;100.00;98730.92;109741;1286;22297;-79
2023/10/01 04:59:25;;;;;;;29.20;16.70;;;;;;;8.97;100.00;98730.19;109747;1276;22401;-79
2023/10/01 05:01:59;;;;;;;27.00;18.80;;;;;;;9.03;100.00;98735.41;109744;1286;22236;-79
2023/10/01 05:04:27;;;;;;;20.70;18.00;;;;;;;9.07;100.00;98736.27;109742;1286;23058;-79
2023/10/01 05:07:04;;;;;;;22.30;19.40;;;;;;;9.11;100.00;98735.79;109750;1275;22356;-79
2023/10/01 05:09:33;;;;;;;30.40;19.30;;;;;;;9.14;100.00;98732.39;109744;1276;22219;-79
2023/10/01 05:12:03;;;;;;;24.90;18.70;;;;;;;9.14;100.00;98733.91;109772;1280;22231;-82
2023/10/01 05:14:32;;;;;;;23.50;19.10;;;;;;;9.21;100.00;98734.11;109776;1286;22248;-81
2023/10/01 05:17:07;;;;;;;21.30;17.90;;;;;;;9.22;100.00;98730.30;109764;1281;22187;-80
2023/10/01 05:19:38;;;;;;;22.70;18.30;;;;;;;9.22;100.00;98739.55;109769;1280;22204;-80
2023/10/01 05:22:08;;;;;;;25.40;19.00;;;;;;;9.23;100.00;98744.12;109768;1281;22212;-81
2023/10/01 05:24:40;;;;;;;23.00;17.30;;;;;;;9.24;100.00;98746.92;109744;1279;22215;-78
2023/10/01 05:27:09;;;;;;;21.90;16.60;;;;;;;9.20;100.00;98741.70;109755;1280;22353;-79
2023/10/01 05:29:42;;;;;;;19.60;15.60;;;;;;;9.17;100.00;98732.71;109766;1286;22253;-79
2023/10/01 05:32:18;;;;;;;20.20;15.20;;;;;;;9.16;100.00;98728.75;109759;1271;23016;-79
2023/10/01 05:34:46;;;;;;;19.60;15.40;;;;;;;9.16;100.00;98724.81;109768;1286;22219;-79
2023/10/01 05:37:24;;;;;;;24.20;16.70;;;;;;;9.19;100.00;98731.16;109770;1271;22225;-79
2023/10/01 05:39:57;;;;;;;20.90;16.40;;;;;;;9.20;100.00;98741.81;109769;1271;22357;-78
2023/10/01 05:42:40;;;;;;;19.60;15.50;;;;;;;9.22;100.00;98743.48;109763;1271;22250;-78
2023/10/01 05:45:19;;;;;;;16.60;14.20;;;;;;;9.23;100.00;98746.33;109744;1276;22336;-78
2023/10/01 05:47:54;;;;;;;22.50;15.20;;;;;;;9.22;100.00;98745.63;109758;1275;22205;-78
2023/10/01 05:50:28;;;;;;;19.40;16.70;;;;;;;9.20;100.00;98747.08;109773;1276;22916;-78
2023/10/01 05:52:57;;;;;;;24.20;15.40;;;;;;;9.15;100.00;98746.70;109745;1280;22241;-78
2023/10/01 05:55:25;;;;;;;22.40;16.00;;;;;;;9.15;100.00;98758.31;109756;1286;22259;-79
2023/10/01 05:57:53;;;;;;;20.00;15.70;;;;;;;9.19;100.00;98764.07;109775;1279;22328;-79
2023/10/01 06:00:27;;;;;;;20.20;15.30;;;;;;;9.23;100.00;98766.44;109769;1286;22738;-79
2023/10/01 06:03:01;;;;;;;21.40;15.10;;;;;;;9.29;100.00;98769.13;109781;1271;22252;-79
2023/10/01 06:08:24;;;;;;;19.90;14.30;;;;;;;9.38;100.00;98757.61;109765;1279;22227;-79
2023/10/01 06:11:13;;;;;;;20.20;14.00;;;;;;;9.44;100.00;98762.68;109787;1271;22334;-78
2023/10/01 06:13:49;;;;;;;18.60;12.90;;;;;;;9.49;100.00;98773.48;109777;1286;22214;-78
2023/10/01 06:16:23;;;;;;;18.30;12.70;;;;;;;9.57;100.00;98767.23;109718;1280;22978;-78
2023/10/01 06:18:57;;;;;;;21.80;14.50;;;;;;;9.65;100.00;98765.77;109735;1286;22253;-79
2023/10/01 06:21:32;;;;;;;16.70;13.20;;;;;;;9.66;100.00;98765.23;109768;1286;22913;-77
2023/10/01 06:24:10;;;;;;;16.50;11.90;;;;;;;9.65;100.00;98766.70;109772;1286;22244;-79
2023/10/01 06:26:50;;;;;;;18.10;12.30;;;;;;;9.62;100.00;98764.97;109773;1286;22352;-78
2023/10/01 06:29:19;;;;;;;18.20;12.60;;;;;;;9.60;100.00;98766.31;109763;1280;22240;-77
2023/10/01 06:32:09;;;;;;;17.20;12.20;;;;;;;9.55;100.00;98766.38;109777;1271;22954;-80
2023/10/01 06:34:39;;;;;;;16.80;11.70;;;;;;;9.52;100.00;98763.20;109772;1286;22316;-79
2023/10/01 06:37:07;;;;;;;25.40;12.80;;;;;;;9.56;100.00;98769.77;109772;1276;22906;-79
2023/10/01 06:39:35;;;;;;;23.00;12.60;;;;;;;9.57;100.00;98766.27;109782;1271;22683;-80
2023/10/01 06:42:18;;;;;;;19.20;12.80;;;;;;;9.64;100.00;98761.14;109783;1271;22239;-78
2023/10/01 06:44:55;;;;;;;18.10;12.00;;;;;;;9.69;100.00;98763.09;109729;1280;22987;-79
2023/10/01 06:47:26;;;;;;;17.70;12.80;;;;;;;9.72;100.00;98763.13;109721;1280;22239;-79
2023/10/01 06:50:14;;;;;;;20.50;13.80;;;;;;;9.78;100.00;98765.98;109774;1279;22238;-80
2023/10/01 06:52:43;;;;;;;22.00;14.60;;;;;;;9.88;100.00;98767.25;109771;1280;22521;-80
2023/10/01 06:55:26;;;;;;;19.70;12.40;;;;;;;9.99;100.00;98766.63;109789;1271;23005;-80
2023/10/01 06:58:00;;;;;;;18.50;12.40;;;;;;;10.10;100.00;98763.73;109777;1276;22348;-79
2023/10/01 07:00:33;;;;;;;21.70;13.00;;;;;;;10.21;100.00;98769.63;109770;1271;22874;-79
2023/10/01 07:03:18;;;;;;;16.80;13.20;;;;;;;10.25;100.00;98774.63;109773;1279;22344;-79
2023/10/01 07:05:51;;;;;;;19.70;12.50;;;;;;;10.30;100.00;98772.48;109773;1271;22393;-79
2023/10/01 07:08:19;;;;;;;18.40;12.30;;;;;;;10.35;100.00;98763.80;109743;1280;22142;-77
2023/10/01 07:10:50;;;;;;;19.80;12.40;;;;;;;10.43;100.00;98767.73;109754;1279;22220;-79
2023/10/01 07:13:20;;;;;;;17.50;11.20;;;;;;;10.46;100.00;98774.19;109759;1271;22297;-79
2023/10/01 07:15:48;;;;;;;17.10;12.20;;;;;;;10.46;100.00;98776.36;109751;1279;22395;-79
2023/10/01 07:18:19;;;;;;;17.10;11.80;;;;;;;10.51;100.00;98783.55;109775;1280;23217;-78
2023/10/01 07:20:50;;;;;;;19.20;11.30;;;;;;;10.53;100.00;98780.48;109776;1286;22115;-79
2023/10/01 07:23:21;;;;;;;16.90;10.50;;;;;;;10.58;100.00;98774.46;109778;1286;22077;-79
2023/10/01 07:26:00;;;;;;;16.60;11.00;;;;;;;10.67;100.00;98779.98;109763;1280;22218;-80
2023/10/01 07:28:28;;;;;;;17.40;12.60;;;;;;;10.73;100.00;98783.11;109766;1271;22249;-80
2023/10/01 07:31:01;;;;;;;15.90;11.20;;;;;;;10.80;100.00;98787.08;109773;1279;23523;-80
2023/10/01 07:33:30;;;;;;;19.90;12.60;;;;;;;10.84;100.00;98789.04;109725;1276;22367;-80
2023/10/01 07:36:01;;;;;;;18.00;12.40;;;;;;;10.89;100.00;98793.23;109751;1283;22209;-80
2023/10/01 07:38:46;;;;;;;16.90;11.90;;;;;;;10.89;100.00;98798.14;109757;1286;22321;-80
2023/10/01 07:41:16;;;;;;;20.50;13.30;;;;;;;10.85;100.00;98788.63;109776;1284;22200;-80
2023/10/01 07:43:44;;;;;;;17.20;12.90;;;;;;;10.85;100.00;98783.33;109754;1282;22217;-80
2023/10/01 07:46:18;;;;;;;16.90;12.70;;;;;;;10.86;100.00;98779.16;109716;1271;22923;-79
2023/10/01 07:48:47;;;;;;;18.70;13.30;;;;;;;10.91;100.00;98785.39;109769;1286;22215;-80
2023/10/01 07:51:35;;;;;;;18.30;12.80;;;;;;;10.99;100.00;98788.41;109771;1280;22447;-80
2023/10/01 07:54:10;;;;;;;17.20;12.80;;;;;;;11.02;100.00;98781.39;109716;1280;23051;-80
2023/10/01 07:56:39;;;;;;;;;;;;;;;11.00;100.00;98775.27;109769;1281;22546;-79
2023/10/01 08:07:15;;;;;;;16.30;13.10;;;;;;;11.11;100.00;98769.13;109870;1271;22208;-80
2023/10/01 08:09:57;;;;;;;22.50;14.20;;;;;;;11.19;100.00;98761.15;109794;1271;22286;-79
2023/10/01 08:20:56;;;;;;;18.50;15.40;;;;;;;11.46;100.00;98767.36;109782;1286;22750;-78
2023/10/01 08:23:36;;;;;;;18.60;14.60;;;;;;;11.53;100.00;98762.33;109776;1280;23206;-78
2023/10/01 08:26:39;;;;;;;17.70;12.30;;;;;;;11.65;100.00;98765.57;109776;1284;22206;-78
2023/10/01 08:28:57;;;;;;;16.70;10.40;;;;;;;11.81;100.00;98766.17;109760;1280;22910;-78
2023/10/01 08:34:24;;;;;;;14.10;10.10;;;;;;;12.01;100.00;98762.92;109731;1280;22241;-78
2023/10/01 08:37:06;;;;;;;18.40;11.70;;;;;;;12.03;100.00;98764.09;109777;1279;22226;-78
2023/10/01 08:39:34;;;;;;;17.10;10.70;;;;;;;12.11;100.00;98764.37;109764;1286;22899;-78
2023/10/01 08:42:08;;;;;;;13.30;9.70;;;;;;;12.22;100.00;98770.09;109777;1271;22309;-78
2023/10/01 08:44:54;;;;;;;;;;;;;;;12.38;100.00;98774.33;109749;1286;22530;-78
2023/10/01 08:47:36;;;;;;;15.00;9.70;;;;;;;12.49;100.00;98778.75;109789;1276;22197;-78
2023/10/01 08:50:26;;;;;;;14.90;9.50;;;;;;;12.55;100.00;98782.29;109719;1264;22220;-78
2023/10/01 08:52:58;;;;;;;14.80;9.10;;;;;;;12.61;100.00;98782.75;109788;1283;22515;-78
2023/10/01 08:55:39;;;;;;;13.90;9.00;;;;;;;12.69;100.00;98780.16;109777;1286;22189;-78
2023/10/01 08:58:15;;;;;;;16.70;8.30;;;;;;;12.79;100.00;98777.06;109788;1271;22230;-78
2023/10/01 09:00:48;;;;;;;16.10;8.20;;;;;;;12.79;100.00;98776.77;109785;1286;22758;-78
2023/10/01 09:03:28;;;;;;;16.10;7.70;;;;;;;12.78;100.00;98777.23;109783;1283;22256;-78
2023/10/01 09:06:24;;;;;;;14.30;7.20;;;;;;;12.72;100.00;98779.58;109786;1276;22433;-79
2023/10/01 09:08:59;;;;;;;12.70;7.10;;;;;;;12.74;100.00;98777.39;109782;1280;22377;-80
2023/10/01 09:11:35;;;;;;;14.40;7.20;;;;;;;12.79;100.00;98772.35;109716;1276;22285;-80
2023/10/01 09:14:20;;;;;;;17.50;7.20;;;;;;;12.73;100.00;98768.69;109802;1271;22364;-80
2023/10/01 09:16:57;;;;;;;;;;;;;;;12.67;100.00;98776.29;109725;1286;22391;-80
2023/10/01 09:19:35;;;;;;;15.30;7.30;;;;;;;12.65;100.00;98769.95;109768;1286;22237;-79
2023/10/01 09:22:22;;;;;;;16.40;8.20;;;;;;;12.74;100.00;98770.73;109777;1279;22942;-80
2023/10/01 09:25:01;;;;;;;11.00;6.80;;;;;;;12.81;100.00;98767.55;109757;1280;22259;-79
2023/10/01 09:27:30;;;;;;;16.30;7.10;;;;;;;12.91;100.00;98767.75;109786;1286;22225;-79
2023/10/01 09:30:26;;;;;;;13.80;7.70;;;;;;;13.01;100.00;98770.52;109769;1283;22800;-79
2023/10/01 09:32:56;;;;;;;17.60;8.40;;;;;;;13.04;100.00;98768.16;109773;1286;22266;-80
2023/10/01 09:35:40;;;;;;;18.70;7.80;;;;;;;13.09;100.00;98768.28;109751;1286;22391;-80
2023/10/01 09:38:11;;;;;;;17.70;8.30;;;;;;;13.18;100.00;98762.36;109781;1276;22210;-78
2023/10/01 09:40:44;;;;;;;15.80;8.90;;;;;;;13.27;100.00;98761.70;109765;1283;22231;-79
2023/10/01 09:43:19;;;;;;;16.00;8.30;;;;;;;13.33;100.00;98763.20;109757;1271;22563;-78
2023/10/01 09:45:49;;;;;;;14.80;9.00;;;;;;;13.32;100.00;98761.20;109774;1286;22211;-78
2023/10/01 09:48:38;;;;;;;12.50;7.60;;;;;;;13.33;100.00;98758.58;109760;1283;22237;-78
2023/10/01 09:51:18;;;;;;;16.90;8.60;;;;;;;13.37;100.00;98757.38;109747;1281;22196;-78
2023/10/01 09:53:48;;;;;;;17.60;7.80;;;;;;;13.43;100.00;98758.70;109760;1279;22198;-79
2023/10/01 09:56:29;;;;;;;16.20;8.30;;;;;;;13.49;100.00;98753.60;109775;1282;22730;-79
2023/10/01 09:59:07;;;;;;;14.00;7.40;;;;;;;13.59;100.00;98755.40;109773;1286;22212;-79
2023/10/01 10:01:37;;;;;;;16.00;8.20;;;;;;;13.68;100.00;98757.67;109781;1271;22288;-78
2023/10/01 10:04:08;;;;;;;16.30;8.60;;;;;;;13.74;100.00;98748.52;109782;1285;22475;-79
2023/10/01 10:06:39;;;;;;;15.70;8.00;;;;;;;13.87;100.00;98745.30;109766;1283;22298;-79
2023/10/01 10:09:10;;;;;;;12.50;7.30;;;;;;;13.91;100.00;98746.58;109760;1286;22369;-79
2023/10/01 10:11:43;;;;;;;17.50;7.70;;;;;;;13.90;99.96;98750.89;109776;1281;22894;-78
2023/10/01 10:14:24;;;;;;;11.90;6.80;;;;;;;13.90;99.97;98753.00;109772;1276;22658;-79
2023/10/01 10:20:15;;;;;;;19.50;7.60;;;;;;;13.92;99.26;98751.43;109766;1271;22081;-78
2023/10/01 10:23:13;;;;;;;12.20;7.00;;;;;;;13.94;99.78;98751.40;109778;1281;22187;-78
2023/10/01 10:25:45;;;;;;;13.70;7.80;;;;;;;14.08;100.00;98746.85;109752;1280;22249;-78
2023/10/01 10:28:29;;;;;;;14.60;7.90;;;;;;;14.25;100.00;98741.20;109761;1277;22876;-79
2023/10/01 10:31:29;;;;;;;15.30;7.30;;;;;;;14.38;100.00;98737.20;109773;1276;22301;-79
2023/10/01 10:34:25;;;;;;;17.80;7.50;;;;;;;14.55;100.00;98740.09;109787;1280;22987;-78
2023/10/01 10:36:54;;;;;;;16.60;8.10;;;;;;;14.75;100.00;98733.58;109749;1279;22208;-78
2023/10/01 10:39:45;;;;;;;14.90;7.70;;;;;;;14.91;99.37;98735.85;109741;1276;22382;-77
2023/10/01 10:42:28;;;;;;;13.50;7.00;;;;;;;15.04;98.48;98737.27;109708;1286;23144;-77
2023/10/01 10:45:26;;;;;;;14.90;6.30;;;;;;;15.22;99.46;98733.52;109720;1284;22090;-78
2023/10/01 10:48:03;;;;;;;15.80;6.70;;;;;;;15.44;98.29;98741.38;109752;1279;22334;-77
2023/10/01 10:50:48;;;;;;;11.70;6.20;;;;;;;15.46;97.19;98742.41;109764;1273;22238;-77
2023/10/01 10:53:25;;;;;;;12.40;5.90;;;;;;;15.48;94.86;98743.13;109760;1286;22275;-77
2023/10/01 10:55:54;;;;;;;19.90;14.40;;;;;;;15.47;94.49;98743.39;109744;1283;22371;-78
2023/10/01 10:58:25;;;;;;;16.50;7.70;;;;;;;15.47;92.35;98739.58;109742;1286;22666;-78
2023/10/01 11:00:53;;;;;;;20.30;11.80;;;;;;;15.42;92.19;98738.17;109768;1271;22796;-77
2023/10/01 11:03:41;;;;;;;13.20;7.30;;;;;;;15.47;92.95;98739.58;109760;1287;22261;-78
2023/10/01 11:06:15;;;;;;;16.00;9.60;;;;;;;15.61;93.20;98735.30;109736;1282;22162;-78
2023/10/01 11:08:50;;;;;;;12.90;6.20;;;;;;;15.76;92.18;98733.16;109748;1286;22904;-78
2023/10/01 11:11:30;;;;;;;14.60;6.20;;;;;;;15.89;92.38;98731.49;109733;1279;22214;-79
2023/10/01 11:14:02;;;;;;;14.30;6.60;;;;;;;16.20;91.53;98727.87;109715;1273;22920;-78
2023/10/01 11:16:36;;;;;;;10.90;5.80;;;;;;;16.40;89.47;98725.52;109734;1267;23135;-77
2023/10/01 11:19:12;;;;;;;13.60;5.90;;;;;;;16.41;88.18;98721.85;109749;1284;22216;-77
2023/10/01 11:21:55;;;;;;;12.10;6.80;;;;;;;16.47;89.05;98722.04;109752;1281;22295;-77
2023/10/01 11:24:34;;;;;;;15.10;8.00;;;;;;;16.62;87.88;98722.24;109699;1286;22910;-77
2023/10/01 11:27:19;;;;;;;13.60;8.60;;;;;;;16.64;87.01;98722.58;109730;1284;22264;-78
2023/10/01 11:30:12;;;;;;;14.60;6.80;;;;;;;16.58;87.06;98721.55;109746;1281;22116;-77
2023/10/01 11:32:42;;;;;;;11.20;5.80;;;;;;;16.47;85.23;98715.13;109770;1286;22863;-77
2023/10/01 11:35:28;;;;;;;11.40;4.90;;;;;;;16.40;85.22;98710.67;109782;1283;22145;-77
2023/10/01 11:37:56;;;;;;;14.60;7.10;;;;;;;16.29;83.63;98704.82;109753;1281;22302;-77
2023/10/01 11:41:06;;;;;;;14.60;8.10;;;;;;;16.27;86.44;98692.38;109701;1287;22205;-77
2023/10/01 11:43:23;;;;;;;15.40;7.00;;;;;;;16.37;86.81;98693.29;109752;1272;22228;-78
2023/10/01 11:46:20;;;;;;;15.20;7.90;;;;;;;16.33;85.01;98694.52;109729;1284;22955;-78
2023/10/01 11:48:57;;;;;;;11.40;5.90;;;;;;;16.31;85.18;98689.44;109752;1276;22212;-78
2023/10/01 11:51:31;;;;;;;11.70;5.40;;;;;;;16.30;85.00;98688.25;109772;1286;22198;-77
2023/10/01 11:54:09;;;;;;;11.60;6.40;;;;;;;16.29;86.23;98686.88;109757;1286;22184;-77
2023/10/01 11:56:43;;;;;;;17.40;8.60;;;;;;;16.44;85.49;98692.53;109731;1286;22243;-77
2023/10/01 11:59:18;;;;;;;14.30;6.20;;;;;;;16.55;84.75;98686.66;109763;1286;22828;-77
2023/10/01 12:01:53;;;;;;;11.60;6.80;;;;;;;16.65;84.21;98684.02;109760;1276;22203;-77
2023/10/01 12:04:43;;;;;;;14.70;6.00;;;;;;;16.73;83.43;98684.39;109675;1276;22128;-77
2023/10/01 12:07:17;;;;;;;12.80;5.90;;;;;;;16.92;83.36;98683.40;109666;1280;22168;-77
2023/10/01 12:09:49;;;;;;;11.60;5.70;;;;;;;16.96;82.16;98686.45;109731;1282;22215;-78
2023/10/01 12:12:25;;;;;;;12.30;6.00;;;;;;;16.87;81.56;98684.65;109793;1272;22130;-79
2023/10/01 12:15:32;;;;;;;12.40;5.40;;;;;;;16.80;81.24;98686.66;109737;1272;22360;-77
2023/10/01 12:17:45;;;;;;;13.10;5.90;;;;;;;16.81;83.33;98685.30;109665;1281;22201;-77
2023/10/01 12:20:22;;;;;;;10.00;5.90;;;;;;;16.89;83.07;98680.05;109742;1282;22256;-76
2023/10/01 12:25:46;;;;;;;12.00;5.90;;;;;;;16.96;81.00;98681.98;109767;1286;23011;-77
2023/10/01 12:28:28;;;;;;;13.00;6.20;;;;;;;16.86;79.99;98679.76;109824;1283;22425;-78
2023/10/01 12:30:58;;;;;;;13.10;5.60;;;;;;;16.78;79.81;98678.50;109590;1276;208218;-79